Arabia, CA

1:29 AM PDT on September 02, 2014 (GMT -0700)
MesoWest Coachella CA US SGXWFO | Change Station
CLOSE
Current Station
Personal Weather Station
Location: Salton City, CA
Elevation: -100 ft
Nearby Weather Stations

Elev -100 ft 33.66 °N, 116.15 °W | Updated 34 minutes ago

Clear
Clear
84 °F
Feels Like 81 °F
N
4
Wind Variable Wind from NNW
Gusts 0.0 mph

Today
High -- | Low -- °F
--% Chance of Precip.
Yesterday
High -- | Low -- °F
Precip. -- in
6:19 AM 7:08 PM
Waxing Crescent, 49% visible
Pressure 29.67 in
Visibility 10.0 miles
Clouds Clear
Heat Index 81 °F
Dew Point 39 °F
Humidity 20%
Rainfall -999.00 in
Snow Depth Not available.
UV 0 out of 12
Pollen 8.30 out of 12
Ozone Good
Flu Activity Not available.
METAR KTRM 020752Z AUTO 33008KT 10SM CLR 32/M01 A2966 RMK AO2 SLP046 T03171006 404110194 TSNO

More Conditions Fewer Conditions

Pressure 29.67 in
Visibility 10.0 miles
Clouds Clear
Heat Index 81 °F
Dew Point 39 °F
Humidity 20%
Rainfall -999.00 in
Snow Depth Not available.
UV 0 out of 12
Pollen 8.30 out of 12
Ozone Good
Flu Activity Not available.
METAR KTRM 020752Z AUTO 33008KT 10SM CLR 32/M01 A2966 RMK AO2 SLP046 T03171006 404110194 TSNO

More Conditions Fewer Conditions

10-Day Weather Forecast

Almanac

Astronomy

Sep. 02, 2014 Rise Set
Actual Time 6:19 AM PDT 7:08 PM PDT
Civil Twilight 5:53 AM PDT 7:33 PM PDT
Nautical Twilight 5:24 AM PDT 8:03 PM PDT
Astronomical Twilight 4:53 AM PDT 8:34 PM PDT
Moon 1:47 PM PDT No Moon Set
Length of Visible Light 13h 39m
Length of Day
12h 49m
Tomorrow will be 2m 1s shorter.
Waxing Crescent, 49% of the Moon is Illuminated
Today
Waxing Crescent
Sep 2
First Quarter
Sep 8
Full
Sep 15
Last Quarter
Sep 24
New

Today's Extremes

State Highs State Lows

Community

WunderPhotos

Upload Photos

1,749,587 photos uploaded!

WunderBlogs® & News

Nearby

Air Quality

  Air Quality AQ Index Pollutant
Yesterday Moderate
OZONE
Yesterday Good
PM10
Current Good
OZONE
Tuesday Moderate
OZONE
Tuesday Good
PM10
Tuesday Good
CO
Tuesday Good
NO2

Snow Depth

Station Depth Elevation
Leavitt Lake 0 in 9400 ft
Leavitt Meadows 1 in 7200 ft
Summit Meadow 0 in 9122 ft
Monitor Pass 0 in 8350 ft
Blue Lakes 0 in 8000 ft

Earthquake Activity

City Distance Mag. Time & Date
Holtville, California 73 miles 2.5 5:43 PM PDT
2014-09-01
Holtville, California 75 miles 2.5 5:26 PM PDT
2014-09-01
Minimum magnitude displayed is 2.5.

Coastal Water Temperatures

Place Temperature
No Stations Reporting

Nearby Weather Stations